sensor_id;sensor_type;location;lat;lon;timestamp;pressure;altitude;pressure_sealevel;temperature;humidity
62864;BME280;48954;59.950;11.014;2023-03-15T00:00:02;97544.46;;;-6.95;66.96
62864;BME280;48954;59.950;11.014;2023-03-15T00:03:07;97541.77;;;-7.07;67.42
62864;BME280;48954;59.950;11.014;2023-03-15T00:06:10;97534.38;;;-7.12;67.81
62864;BME280;48954;59.950;11.014;2023-03-15T00:08:55;97530.73;;;-7.16;67.84
62864;BME280;48954;59.950;11.014;2023-03-15T00:11:52;97528.38;;;-7.21;67.67
62864;BME280;48954;59.950;11.014;2023-03-15T00:14:52;97535.80;;;-7.24;68.21
62864;BME280;48954;59.950;11.014;2023-03-15T00:17:45;97538.26;;;-7.23;68.50
62864;BME280;48954;59.950;11.014;2023-03-15T00:21:05;97545.30;;;-7.29;68.11
62864;BME280;48954;59.950;11.014;2023-03-15T00:24:25;97553.52;;;-7.40;67.85
62864;BME280;48954;59.950;11.014;2023-03-15T00:27:33;97570.45;;;-7.51;68.06
62864;BME280;48954;59.950;11.014;2023-03-15T00:30:16;97580.70;;;-7.60;68.23
62864;BME280;48954;59.950;11.014;2023-03-15T00:33:35;97591.78;;;-7.65;68.47
62864;BME280;48954;59.950;11.014;2023-03-15T00:36:31;97595.09;;;-7.74;68.13
62864;BME280;48954;59.950;11.014;2023-03-15T00:39:15;97596.00;;;-7.82;68.05
62864;BME280;48954;59.950;11.014;2023-03-15T00:42:01;97601.07;;;-7.89;68.44
62864;BME280;48954;59.950;11.014;2023-03-15T00:44:43;97607.86;;;-7.97;68.31
62864;BME280;48954;59.950;11.014;2023-03-15T00:47:47;97609.63;;;-8.01;68.36
62864;BME280;48954;59.950;11.014;2023-03-15T00:50:28;97609.05;;;-8.04;68.96
62864;BME280;48954;59.950;11.014;2023-03-15T00:53:28;97613.05;;;-8.06;68.93
62864;BME280;48954;59.950;11.014;2023-03-15T00:56:24;97615.44;;;-8.06;69.17
62864;BME280;48954;59.950;11.014;2023-03-15T00:59:04;97619.32;;;-8.09;69.31
62864;BME280;48954;59.950;11.014;2023-03-15T01:01:45;97626.88;;;-8.12;69.40
62864;BME280;48954;59.950;11.014;2023-03-15T01:04:26;97629.20;;;-8.17;69.13
62864;BME280;48954;59.950;11.014;2023-03-15T01:07:07;97631.06;;;-8.24;69.08
62864;BME280;48954;59.950;11.014;2023-03-15T01:09:49;97629.92;;;-8.30;68.97
62864;BME280;48954;59.950;11.014;2023-03-15T01:12:31;97625.92;;;-8.35;69.44
62864;BME280;48954;59.950;11.014;2023-03-15T01:15:21;97626.80;;;-8.38;69.74
62864;BME280;48954;59.950;11.014;2023-03-15T01:18:02;97626.54;;;-8.37;69.86
62864;BME280;48954;59.950;11.014;2023-03-15T01:20:43;97634.10;;;-8.37;69.76
62864;BME280;48954;59.950;11.014;2023-03-15T01:23:23;97640.04;;;-8.38;69.92
62864;BME280;48954;59.950;11.014;2023-03-15T01:26:06;97641.00;;;-8.39;70.20
62864;BME280;48954;59.950;11.014;2023-03-15T01:28:47;97646.66;;;-8.39;70.00
62864;BME280;48954;59.950;11.014;2023-03-15T01:31:29;97652.51;;;-8.42;69.97
62864;BME280;48954;59.950;11.014;2023-03-15T01:34:10;97656.61;;;-8.45;69.94
62864;BME280;48954;59.950;11.014;2023-03-15T01:36:51;97666.07;;;-8.51;69.38
62864;BME280;48954;59.950;11.014;2023-03-15T01:39:31;97675.17;;;-8.58;69.39
62864;BME280;48954;59.950;11.014;2023-03-15T01:42:12;97678.12;;;-8.69;69.44
62864;BME280;48954;59.950;11.014;2023-03-15T01:44:55;97677.03;;;-8.75;69.42
62864;BME280;48954;59.950;11.014;2023-03-15T01:47:39;97678.95;;;-8.81;69.86
62864;BME280;48954;59.950;11.014;2023-03-15T01:50:20;97677.32;;;-8.85;69.67
62864;BME280;48954;59.950;11.014;2023-03-15T01:53:01;97683.42;;;-8.89;69.64
62864;BME280;48954;59.950;11.014;2023-03-15T01:55:42;97689.89;;;-8.94;69.65
62864;BME280;48954;59.950;11.014;2023-03-15T01:58:28;97694.73;;;-9.00;69.81
62864;BME280;48954;59.950;11.014;2023-03-15T02:01:09;97689.89;;;-9.06;69.71
62864;BME280;48954;59.950;11.014;2023-03-15T02:03:58;97695.08;;;-9.11;69.94
62864;BME280;48954;59.950;11.014;2023-03-15T02:06:42;97691.95;;;-9.19;69.58
62864;BME280;48954;59.950;11.014;2023-03-15T02:09:31;97695.02;;;-9.27;69.51
62864;BME280;48954;59.950;11.014;2023-03-15T02:12:09;97698.12;;;-9.34;69.77
62864;BME280;48954;59.950;11.014;2023-03-15T02:14:50;97704.98;;;-9.38;70.13
62864;BME280;48954;59.950;11.014;2023-03-15T02:17:36;97704.89;;;-9.42;70.11
62864;BME280;48954;59.950;11.014;2023-03-15T02:23:20;97723.59;;;-9.44;70.54
62864;BME280;48954;59.950;11.014;2023-03-15T02:28:41;97732.35;;;-9.48;70.37
62864;BME280;48954;59.950;11.014;2023-03-15T02:31:22;97735.70;;;-9.52;70.23
62864;BME280;48954;59.950;11.014;2023-03-15T02:33:51;97734.70;;;-9.57;70.00
62864;BME280;48954;59.950;11.014;2023-03-15T02:36:24;97738.55;;;-9.63;69.81
62864;BME280;48954;59.950;11.014;2023-03-15T02:38:55;97740.97;;;-9.67;69.96
62864;BME280;48954;59.950;11.014;2023-03-15T02:41:30;97743.82;;;-9.71;70.16
62864;BME280;48954;59.950;11.014;2023-03-15T02:44:07;97758.49;;;-9.77;70.16
62864;BME280;48954;59.950;11.014;2023-03-15T02:46:37;97766.92;;;-9.83;70.05
62864;BME280;48954;59.950;11.014;2023-03-15T02:49:08;97761.98;;;-9.87;70.22
62864;BME280;48954;59.950;11.014;2023-03-15T02:51:37;97764.76;;;-9.90;70.05
62864;BME280;48954;59.950;11.014;2023-03-15T02:54:03;97762.81;;;-9.97;69.61
62864;BME280;48954;59.950;11.014;2023-03-15T02:56:30;97763.13;;;-10.03;69.74
62864;BME280;48954;59.950;11.014;2023-03-15T02:59:02;97767.19;;;-10.07;69.97
62864;BME280;48954;59.950;11.014;2023-03-15T03:01:30;97777.72;;;-10.11;69.87
62864;BME280;48954;59.950;11.014;2023-03-15T03:03:57;97783.83;;;-10.14;70.14
62864;BME280;48954;59.950;11.014;2023-03-15T03:06:24;97781.68;;;-10.19;70.21
62864;BME280;48954;59.950;11.014;2023-03-15T03:08:51;97779.20;;;-10.22;70.25
62864;BME280;48954;59.950;11.014;2023-03-15T03:11:19;97780.42;;;-10.25;70.05
62864;BME280;48954;59.950;11.014;2023-03-15T03:13:46;97788.33;;;-10.28;70.24
62864;BME280;48954;59.950;11.014;2023-03-15T03:16:13;97788.34;;;-10.33;69.97
62864;BME280;48954;59.950;11.014;2023-03-15T03:18:40;97791.27;;;-10.36;70.05
62864;BME280;48954;59.950;11.014;2023-03-15T03:21:07;97800.27;;;-10.40;70.25
62864;BME280;48954;59.950;11.014;2023-03-15T03:23:34;97807.09;;;-10.47;70.12
62864;BME280;48954;59.950;11.014;2023-03-15T03:26:01;97807.77;;;-10.53;70.01
62864;BME280;48954;59.950;11.014;2023-03-15T03:28:30;97809.41;;;-10.56;70.02
62864;BME280;48954;59.950;11.014;2023-03-15T03:30:57;97815.91;;;-10.61;70.33
62864;BME280;48954;59.950;11.014;2023-03-15T03:33:23;97817.10;;;-10.66;70.14
62864;BME280;48954;59.950;11.014;2023-03-15T03:35:49;97821.35;;;-10.70;70.50
62864;BME280;48954;59.950;11.014;2023-03-15T03:38:15;97824.59;;;-10.72;70.33
62864;BME280;48954;59.950;11.014;2023-03-15T03:40:41;97826.98;;;-10.74;70.32
62864;BME280;48954;59.950;11.014;2023-03-15T03:43:08;97829.76;;;-10.77;70.27
62864;BME280;48954;59.950;11.014;2023-03-15T03:45:34;97831.26;;;-10.80;70.49
62864;BME280;48954;59.950;11.014;2023-03-15T03:48:00;97839.54;;;-10.86;70.63
62864;BME280;48954;59.950;11.014;2023-03-15T03:50:27;97837.63;;;-10.89;70.81
62864;BME280;48954;59.950;11.014;2023-03-15T03:52:53;97840.73;;;-10.91;70.53
62864;BME280;48954;59.950;11.014;2023-03-15T03:55:19;97848.37;;;-10.94;70.43
62864;BME280;48954;59.950;11.014;2023-03-15T03:57:45;97853.56;;;-11.00;70.49
62864;BME280;48954;59.950;11.014;2023-03-15T04:00:13;97858.15;;;-11.04;70.42
62864;BME280;48954;59.950;11.014;2023-03-15T04:02:39;97860.64;;;-11.09;70.59
62864;BME280;48954;59.950;11.014;2023-03-15T04:05:05;97872.63;;;-11.14;70.55
62864;BME280;48954;59.950;11.014;2023-03-15T04:07:33;97880.60;;;-11.18;70.55
62864;BME280;48954;59.950;11.014;2023-03-15T04:09:59;97886.22;;;-11.22;70.77
62864;BME280;48954;59.950;11.014;2023-03-15T04:12:25;97887.48;;;-11.25;70.59
62864;BME280;48954;59.950;11.014;2023-03-15T04:14:51;97888.48;;;-11.29;70.81
62864;BME280;48954;59.950;11.014;2023-03-15T04:17:17;97888.45;;;-11.32;70.59
62864;BME280;48954;59.950;11.014;2023-03-15T04:19:43;97889.50;;;-11.35;70.91
62864;BME280;48954;59.950;11.014;2023-03-15T04:22:10;97890.86;;;-11.38;70.47
62864;BME280;48954;59.950;11.014;2023-03-15T04:24:36;97888.79;;;-11.41;70.81
62864;BME280;48954;59.950;11.014;2023-03-15T04:27:02;97888.21;;;-11.42;71.15
62864;BME280;48954;59.950;11.014;2023-03-15T04:29:29;97897.39;;;-11.46;71.15
62864;BME280;48954;59.950;11.014;2023-03-15T04:31:54;97903.27;;;-11.48;70.89
62864;BME280;48954;59.950;11.014;2023-03-15T04:34:20;97910.77;;;-11.53;70.78
62864;BME280;48954;59.950;11.014;2023-03-15T04:36:46;97910.30;;;-11.59;70.77
62864;BME280;48954;59.950;11.014;2023-03-15T04:39:12;97914.20;;;-11.65;70.65
62864;BME280;48954;59.950;11.014;2023-03-15T04:41:38;97914.20;;;-11.66;70.99
62864;BME280;48954;59.950;11.014;2023-03-15T04:44:04;97910.73;;;-11.66;71.26
62864;BME280;48954;59.950;11.014;2023-03-15T04:46:31;97914.73;;;-11.66;71.29
62864;BME280;48954;59.950;11.014;2023-03-15T04:48:57;97922.84;;;-11.65;71.61
62864;BME280;48954;59.950;11.014;2023-03-15T04:51:23;97919.19;;;-11.65;71.16
62864;BME280;48954;59.950;11.014;2023-03-15T04:53:49;97917.21;;;-11.67;71.27
62864;BME280;48954;59.950;11.014;2023-03-15T04:56:16;97916.05;;;-11.70;71.09
62864;BME280;48954;59.950;11.014;2023-03-15T04:58:42;97923.20;;;-11.73;71.25
62864;BME280;48954;59.950;11.014;2023-03-15T05:01:08;97927.08;;;-11.77;70.90
62864;BME280;48954;59.950;11.014;2023-03-15T05:03:35;97932.32;;;-11.81;71.17
62864;BME280;48954;59.950;11.014;2023-03-15T05:06:01;97941.48;;;-11.86;70.37
62864;BME280;48954;59.950;11.014;2023-03-15T05:08:27;97942.66;;;-11.93;70.68
62864;BME280;48954;59.950;11.014;2023-03-15T05:10:54;97944.82;;;-11.98;70.59
62864;BME280;48954;59.950;11.014;2023-03-15T05:13:19;97942.23;;;-12.04;70.77
62864;BME280;48954;59.950;11.014;2023-03-15T05:15:45;97947.84;;;-12.08;71.03
62864;BME280;48954;59.950;11.014;2023-03-15T05:18:11;97953.36;;;-12.08;71.24
62864;BME280;48954;59.950;11.014;2023-03-15T05:20:37;97958.07;;;-12.08;71.48
62864;BME280;48954;59.950;11.014;2023-03-15T05:23:03;97962.31;;;-12.09;71.25
62864;BME280;48954;59.950;11.014;2023-03-15T05:25:29;97960.77;;;-12.10;71.04
62864;BME280;48954;59.950;11.014;2023-03-15T05:27:55;97961.77;;;-12.10;71.37
62864;BME280;48954;59.950;11.014;2023-03-15T05:30:21;97961.51;;;-12.11;71.31
62864;BME280;48954;59.950;11.014;2023-03-15T05:32:47;97962.55;;;-12.12;71.06
62864;BME280;48954;59.950;11.014;2023-03-15T05:37:38;97964.73;;;-12.12;71.79
62864;BME280;48954;59.950;11.014;2023-03-15T05:40:04;97967.42;;;-12.12;71.49
62864;BME280;48954;59.950;11.014;2023-03-15T05:42:30;97973.02;;;-12.16;71.52
62864;BME280;48954;59.950;11.014;2023-03-15T05:44:56;97972.01;;;-12.17;71.59
62864;BME280;48954;59.950;11.014;2023-03-15T05:47:22;97972.89;;;-12.18;71.61
62864;BME280;48954;59.950;11.014;2023-03-15T05:49:49;97979.52;;;-12.18;71.67
62864;BME280;48954;59.950;11.014;2023-03-15T05:52:15;97989.74;;;-12.18;71.92
62864;BME280;48954;59.950;11.014;2023-03-15T05:54:41;97995.11;;;-12.16;71.79
62864;BME280;48954;59.950;11.014;2023-03-15T05:57:07;98001.16;;;-12.14;71.75
62864;BME280;48954;59.950;11.014;2023-03-15T05:59:35;98002.59;;;-12.11;71.75
62864;BME280;48954;59.950;11.014;2023-03-15T06:02:22;98014.05;;;-12.07;71.87
62864;BME280;48954;59.950;11.014;2023-03-15T06:04:52;98017.81;;;-12.05;71.73
62864;BME280;48954;59.950;11.014;2023-03-15T06:07:19;98022.98;;;-12.01;71.72
62864;BME280;48954;59.950;11.014;2023-03-15T06:09:45;98022.58;;;-11.99;71.40
62864;BME280;48954;59.950;11.014;2023-03-15T06:12:11;98022.17;;;-11.98;71.41
62864;BME280;48954;59.950;11.014;2023-03-15T06:14:37;98027.11;;;-11.97;71.57
62864;BME280;48954;59.950;11.014;2023-03-15T06:17:03;98040.42;;;-11.93;71.46
62864;BME280;48954;59.950;11.014;2023-03-15T06:19:31;98045.11;;;-11.90;71.54
62864;BME280;48954;59.950;11.014;2023-03-15T06:21:57;98049.75;;;-11.85;71.90
62864;BME280;48954;59.950;11.014;2023-03-15T06:24:24;98054.61;;;-11.77;72.11
62864;BME280;48954;59.950;11.014;2023-03-15T06:26:50;98060.21;;;-11.70;72.29
62864;BME280;48954;59.950;11.014;2023-03-15T06:29:34;98074.83;;;-11.62;71.85
62864;BME280;48954;59.950;11.014;2023-03-15T06:32:01;98080.17;;;-11.57;71.67
62864;BME280;48954;59.950;11.014;2023-03-15T06:34:27;98083.37;;;-11.53;71.73
62864;BME280;48954;59.950;11.014;2023-03-15T06:36:54;98078.00;;;-11.46;71.46
62864;BME280;48954;59.950;11.014;2023-03-15T06:39:25;98084.61;;;-11.39;71.66
62864;BME280;48954;59.950;11.014;2023-03-15T06:42:06;98094.73;;;-11.29;71.72
62864;BME280;48954;59.950;11.014;2023-03-15T06:44:49;98102.17;;;-11.19;71.71
62864;BME280;48954;59.950;11.014;2023-03-15T06:47:30;98115.64;;;-11.09;72.13
62864;BME280;48954;59.950;11.014;2023-03-15T06:50:20;98121.80;;;-10.95;71.78
62864;BME280;48954;59.950;11.014;2023-03-15T06:52:47;98125.77;;;-10.84;71.53
62864;BME280;48954;59.950;11.014;2023-03-15T06:55:29;98140.05;;;-10.70;71.62
62864;BME280;48954;59.950;11.014;2023-03-15T06:58:11;98138.50;;;-10.55;71.60
62864;BME280;48954;59.950;11.014;2023-03-15T07:01:04;98137.73;;;-10.40;71.64
62864;BME280;48954;59.950;11.014;2023-03-15T07:03:44;98141.42;;;-10.26;71.26
62864;BME280;48954;59.950;11.014;2023-03-15T07:06:21;98146.52;;;-10.09;71.36
62864;BME280;48954;59.950;11.014;2023-03-15T07:09:02;98152.37;;;-9.89;71.35
62864;BME280;48954;59.950;11.014;2023-03-15T07:11:36;98159.82;;;-9.68;71.36
62864;BME280;48954;59.950;11.014;2023-03-15T07:14:08;98160.92;;;-9.47;71.11
62864;BME280;48954;59.950;11.014;2023-03-15T07:16:48;98154.70;;;-9.30;70.95
62864;BME280;48954;59.950;11.014;2023-03-15T07:19:29;98159.52;;;-9.16;70.65
62864;BME280;48954;59.950;11.014;2023-03-15T07:22:09;98160.74;;;-8.95;70.62
62864;BME280;48954;59.950;11.014;2023-03-15T07:24:51;98160.59;;;-8.71;70.37
62864;BME280;48954;59.950;11.014;2023-03-15T07:27:40;98174.62;;;-8.47;70.23
62864;BME280;48954;59.950;11.014;2023-03-15T07:30:27;98183.31;;;-8.24;70.28
62864;BME280;48954;59.950;11.014;2023-03-15T07:33:08;98179.34;;;-8.01;70.44
62864;BME280;48954;59.950;11.014;2023-03-15T07:35:49;98168.84;;;-7.74;70.23
62864;BME280;48954;59.950;11.014;2023-03-15T07:38:30;98175.94;;;-7.53;70.14
62864;BME280;48954;59.950;11.014;2023-03-15T07:41:12;98180.81;;;-7.32;70.22
62864;BME280;48954;59.950;11.014;2023-03-15T07:43:54;98180.11;;;-7.08;70.10
62864;BME280;48954;59.950;11.014;2023-03-15T07:46:34;98181.69;;;-6.82;70.15
62864;BME280;48954;59.950;11.014;2023-03-15T07:49:15;98188.80;;;-6.54;69.96
62864;BME280;48954;59.950;11.014;2023-03-15T07:51:55;98200.48;;;-6.26;69.91
62864;BME280;48954;59.950;11.014;2023-03-15T07:54:45;98202.56;;;-5.91;69.78
62864;BME280;48954;59.950;11.014;2023-03-15T07:57:26;98198.59;;;-5.63;69.44
62864;BME280;48954;59.950;11.014;2023-03-15T08:00:08;98206.52;;;-5.35;69.19
62864;BME280;48954;59.950;11.014;2023-03-15T08:02:49;98212.52;;;-5.02;69.13
62864;BME280;48954;59.950;11.014;2023-03-15T08:05:41;98219.73;;;-4.64;69.00
62864;BME280;48954;59.950;11.014;2023-03-15T08:08:34;98221.27;;;-4.25;69.08
62864;BME280;48954;59.950;11.014;2023-03-15T08:11:34;98226.54;;;-3.95;68.48
62864;BME280;48954;59.950;11.014;2023-03-15T08:14:17;98227.54;;;-3.65;67.79
62864;BME280;48954;59.950;11.014;2023-03-15T08:17:21;98229.24;;;-3.41;67.16
62864;BME280;48954;59.950;11.014;2023-03-15T08:20:23;98227.15;;;-3.15;67.03
62864;BME280;48954;59.950;11.014;2023-03-15T08:23:03;98231.27;;;-2.80;66.76
62864;BME280;48954;59.950;11.014;2023-03-15T08:25:44;98235.86;;;-2.46;66.79
62864;BME280;48954;59.950;11.014;2023-03-15T08:28:46;98237.85;;;-2.11;66.49
62864;BME280;48954;59.950;11.014;2023-03-15T08:31:26;98239.95;;;-1.81;65.85
62864;BME280;48954;59.950;11.014;2023-03-15T08:34:32;98243.84;;;-1.48;65.51
62864;BME280;48954;59.950;11.014;2023-03-15T08:37:32;98250.02;;;-1.10;65.25
62864;BME280;48954;59.950;11.014;2023-03-15T08:40:46;98258.00;;;-1.01;62.73
62864;BME280;48954;59.950;11.014;2023-03-15T08:44:18;98254.58;;;-1.04;61.77
62864;BME280;48954;59.950;11.014;2023-03-15T09:11:12;98295.98;;;1.03;58.54
62864;BME280;48954;59.950;11.014;2023-03-15T15:01:06;98802.04;;;7.76;31.90
62864;BME280;48954;59.950;11.014;2023-03-15T15:04:09;98800.02;;;9.81;30.42
62864;BME280;48954;59.950;11.014;2023-03-15T15:06:50;98800.38;;;10.67;30.03
62864;BME280;48954;59.950;11.014;2023-03-15T15:09:21;98804.30;;;11.95;29.77
62864;BME280;48954;59.950;11.014;2023-03-15T15:11:51;98818.52;;;12.76;28.50
62864;BME280;48954;59.950;11.014;2023-03-15T15:14:18;98821.15;;;13.01;28.22
62864;BME280;48954;59.950;11.014;2023-03-15T15:16:45;98822.73;;;13.53;28.87
62864;BME280;48954;59.950;11.014;2023-03-15T15:19:11;98829.07;;;14.22;28.59
62864;BME280;48954;59.950;11.014;2023-03-15T15:21:37;98831.40;;;14.40;27.15
62864;BME280;48954;59.950;11.014;2023-03-15T15:24:14;98835.72;;;14.81;27.10
62864;BME280;48954;59.950;11.014;2023-03-15T15:26:47;98842.20;;;14.81;27.34
62864;BME280;48954;59.950;11.014;2023-03-15T15:29:14;98845.06;;;13.42;26.95
62864;BME280;48954;59.950;11.014;2023-03-15T15:31:43;98854.28;;;11.89;27.42
62864;BME280;48954;59.950;11.014;2023-03-15T15:34:21;98861.20;;;10.92;27.86
62864;BME280;48954;59.950;11.014;2023-03-15T15:36:51;98869.48;;;10.83;28.21
62864;BME280;48954;59.950;11.014;2023-03-15T15:39:37;98874.15;;;11.24;28.22
62864;BME280;48954;59.950;11.014;2023-03-15T15:42:05;98872.23;;;10.71;28.61
62864;BME280;48954;59.950;11.014;2023-03-15T15:44:31;98883.19;;;10.29;28.70
62864;BME280;48954;59.950;11.014;2023-03-15T15:47:03;98891.15;;;10.63;28.93
62864;BME280;48954;59.950;11.014;2023-03-15T15:49:30;98895.04;;;12.05;27.90
62864;BME280;48954;59.950;11.014;2023-03-15T15:51:56;98901.95;;;11.34;27.35
62864;BME280;48954;59.950;11.014;2023-03-15T15:54:28;98905.70;;;10.29;28.19
62864;BME280;48954;59.950;11.014;2023-03-15T15:56:57;98912.60;;;9.48;28.55
62864;BME280;48954;59.950;11.014;2023-03-15T15:59:26;98921.33;;;8.70;28.90
62864;BME280;48954;59.950;11.014;2023-03-15T16:01:55;98920.04;;;8.03;29.65
62864;BME280;48954;59.950;11.014;2023-03-15T16:04:23;98924.16;;;7.48;30.12
62864;BME280;48954;59.950;11.014;2023-03-15T16:06:58;98927.91;;;7.02;29.76
62864;BME280;48954;59.950;11.014;2023-03-15T16:09:29;98930.77;;;6.55;29.78
62864;BME280;48954;59.950;11.014;2023-03-15T16:12:14;98935.41;;;6.03;30.07
62864;BME280;48954;59.950;11.014;2023-03-15T16:14:43;98941.89;;;5.57;30.39
62864;BME280;48954;59.950;11.014;2023-03-15T16:17:17;98942.65;;;5.17;30.66
62864;BME280;48954;59.950;11.014;2023-03-15T16:19:44;98950.14;;;4.83;31.23
62864;BME280;48954;59.950;11.014;2023-03-15T16:22:12;98955.07;;;4.55;31.13
62864;BME280;48954;59.950;11.014;2023-03-15T16:25:10;98963.02;;;4.23;31.47
62864;BME280;48954;59.950;11.014;2023-03-15T16:27:54;98969.52;;;3.95;32.07
62864;BME280;48954;59.950;11.014;2023-03-15T16:30:33;98976.55;;;3.78;32.17
62864;BME280;48954;59.950;11.014;2023-03-15T16:33:00;98978.65;;;3.63;32.38
62864;BME280;48954;59.950;11.014;2023-03-15T16:35:41;98985.28;;;3.49;32.89
62864;BME280;48954;59.950;11.014;2023-03-15T16:38:25;98985.39;;;3.38;33.52
62864;BME280;48954;59.950;11.014;2023-03-15T16:41:11;98991.21;;;3.23;33.05
62864;BME280;48954;59.950;11.014;2023-03-15T16:43:53;98997.49;;;3.09;33.46
62864;BME280;48954;59.950;11.014;2023-03-15T16:46:33;99004.95;;;2.96;33.49
62864;BME280;48954;59.950;11.014;2023-03-15T16:49:14;99013.67;;;2.87;34.11
62864;BME280;48954;59.950;11.014;2023-03-15T16:51:47;99021.73;;;2.81;34.86
62864;BME280;48954;59.950;11.014;2023-03-15T16:54:18;99023.09;;;2.73;34.37
62864;BME280;48954;59.950;11.014;2023-03-15T16:56:44;99026.95;;;2.65;34.68
62864;BME280;48954;59.950;11.014;2023-03-15T16:59:29;99030.05;;;2.56;34.85
62864;BME280;48954;59.950;11.014;2023-03-15T17:01:57;99043.19;;;2.49;35.90
62864;BME280;48954;59.950;11.014;2023-03-15T17:04:24;99051.64;;;2.41;36.07
62864;BME280;48954;59.950;11.014;2023-03-15T17:06:50;99058.23;;;2.33;35.95
62864;BME280;48954;59.950;11.014;2023-03-15T17:09:20;99063.79;;;2.25;36.63
62864;BME280;48954;59.950;11.014;2023-03-15T17:11:48;99072.42;;;2.13;36.04
62864;BME280;48954;59.950;11.014;2023-03-15T17:14:18;99073.64;;;2.01;36.72
62864;BME280;48954;59.950;11.014;2023-03-15T17:16:48;99083.96;;;1.88;36.99
62864;BME280;48954;59.950;11.014;2023-03-15T17:19:15;99084.14;;;1.73;36.45
62864;BME280;48954;59.950;11.014;2023-03-15T17:21:45;99087.95;;;1.62;37.24
62864;BME280;48954;59.950;11.014;2023-03-15T17:24:12;99095.33;;;1.52;37.18
62864;BME280;48954;59.950;11.014;2023-03-15T17:26:46;99105.25;;;1.39;37.17
62864;BME280;48954;59.950;11.014;2023-03-15T17:29:14;99114.71;;;1.28;37.67
62864;BME280;48954;59.950;11.014;2023-03-15T17:31:42;99115.08;;;1.17;37.15
62864;BME280;48954;59.950;11.014;2023-03-15T17:34:09;99122.95;;;1.10;37.18
62864;BME280;48954;59.950;11.014;2023-03-15T17:36:36;99127.89;;;1.02;37.63
62864;BME280;48954;59.950;11.014;2023-03-15T17:39:03;99131.63;;;0.93;37.56
62864;BME280;48954;59.950;11.014;2023-03-15T17:41:34;99133.01;;;0.87;37.62
62864;BME280;48954;59.950;11.014;2023-03-15T17:44:04;99143.38;;;0.81;37.63
62864;BME280;48954;59.950;11.014;2023-03-15T17:46:31;99150.30;;;0.75;38.01
62864;BME280;48954;59.950;11.014;2023-03-15T17:49:00;99156.38;;;0.67;38.21
62864;BME280;48954;59.950;11.014;2023-03-15T17:51:28;99160.24;;;0.63;37.92
62864;BME280;48954;59.950;11.014;2023-03-15T17:53:56;99165.05;;;0.58;37.94
62864;BME280;48954;59.950;11.014;2023-03-15T17:56:24;99169.11;;;0.52;38.48
62864;BME280;48954;59.950;11.014;2023-03-15T17:58:52;99175.63;;;0.46;38.06
62864;BME280;48954;59.950;11.014;2023-03-15T18:01:39;99177.19;;;0.40;38.25
62864;BME280;48954;59.950;11.014;2023-03-15T18:04:11;99184.37;;;0.33;39.02
62864;BME280;48954;59.950;11.014;2023-03-15T18:06:38;99185.02;;;0.26;38.62
62864;BME280;48954;59.950;11.014;2023-03-15T18:09:05;99186.77;;;0.21;38.96
62864;BME280;48954;59.950;11.014;2023-03-15T18:11:35;99192.45;;;0.18;38.66
62864;BME280;48954;59.950;11.014;2023-03-15T18:14:03;99198.75;;;0.14;38.93
62864;BME280;48954;59.950;11.014;2023-03-15T18:16:41;99205.25;;;0.09;39.24
62864;BME280;48954;59.950;11.014;2023-03-15T18:19:08;99210.69;;;0.05;39.19
62864;BME280;48954;59.950;11.014;2023-03-15T18:21:36;99215.00;;;-0.02;39.72
62864;BME280;48954;59.950;11.014;2023-03-15T18:24:02;99217.85;;;-0.06;39.77
62864;BME280;48954;59.950;11.014;2023-03-15T18:26:29;99219.74;;;-0.12;39.53
62864;BME280;48954;59.950;11.014;2023-03-15T18:28:57;99228.48;;;-0.16;39.98
62864;BME280;48954;59.950;11.014;2023-03-15T18:31:24;99239.15;;;-0.23;40.01
62864;BME280;48954;59.950;11.014;2023-03-15T18:33:52;99237.61;;;-0.32;40.07
62864;BME280;48954;59.950;11.014;2023-03-15T18:36:18;99246.31;;;-0.41;40.05
62864;BME280;48954;59.950;11.014;2023-03-15T18:38:44;99250.81;;;-0.47;40.35
62864;BME280;48954;59.950;11.014;2023-03-15T18:41:18;99253.88;;;-0.54;40.35
62864;BME280;48954;59.950;11.014;2023-03-15T18:43:45;99255.56;;;-0.62;40.49
62864;BME280;48954;59.950;11.014;2023-03-15T18:46:12;99263.54;;;-0.69;40.57
62864;BME280;48954;59.950;11.014;2023-03-15T18:48:38;99267.66;;;-0.73;40.48
62864;BME280;48954;59.950;11.014;2023-03-15T18:51:09;99271.48;;;-0.77;40.85
62864;BME280;48954;59.950;11.014;2023-03-15T18:53:40;99276.26;;;-0.79;41.16
62864;BME280;48954;59.950;11.014;2023-03-15T18:56:28;99281.91;;;-0.82;40.94
62864;BME280;48954;59.950;11.014;2023-03-15T18:58:54;99282.51;;;-0.86;41.07
62864;BME280;48954;59.950;11.014;2023-03-15T19:01:22;99290.50;;;-0.90;41.14
62864;BME280;48954;59.950;11.014;2023-03-15T19:03:48;99289.88;;;-0.97;41.77
62864;BME280;48954;59.950;11.014;2023-03-15T19:06:15;99294.50;;;-1.00;41.51
62864;BME280;48954;59.950;11.014;2023-03-15T19:08:41;99300.81;;;-1.06;41.58
62864;BME280;48954;59.950;11.014;2023-03-15T19:11:07;99308.89;;;-1.13;41.74
62864;BME280;48954;59.950;11.014;2023-03-15T19:13:33;99311.46;;;-1.18;42.23
62864;BME280;48954;59.950;11.014;2023-03-15T19:16:00;99315.67;;;-1.26;41.73
62864;BME280;48954;59.950;11.014;2023-03-15T19:18:26;99323.34;;;-1.32;42.08
62864;BME280;48954;59.950;11.014;2023-03-15T19:20:53;99329.89;;;-1.38;42.54
62864;BME280;48954;59.950;11.014;2023-03-15T19:23:20;99334.52;;;-1.45;42.61
62864;BME280;48954;59.950;11.014;2023-03-15T19:25:46;99342.16;;;-1.53;43.11
62864;BME280;48954;59.950;11.014;2023-03-15T19:28:14;99351.67;;;-1.63;43.21
62864;BME280;48954;59.950;11.014;2023-03-15T19:30:40;99351.92;;;-1.74;43.92
62864;BME280;48954;59.950;11.014;2023-03-15T19:33:07;99356.55;;;-1.87;44.47
62864;BME280;48954;59.950;11.014;2023-03-15T19:35:33;99358.65;;;-2.02;44.98
62864;BME280;48954;59.950;11.014;2023-03-15T19:38:09;99360.09;;;-2.15;45.43
62864;BME280;48954;59.950;11.014;2023-03-15T19:40:36;99368.31;;;-2.30;45.99
62864;BME280;48954;59.950;11.014;2023-03-15T19:43:09;99378.04;;;-2.44;46.58
62864;BME280;48954;59.950;11.014;2023-03-15T19:45:35;99379.40;;;-2.58;46.72